»·PEaware :: N2260 KSMX-KBFL

N2260 :: KSMX-KBFL

FLIGHT INFORMATION

Flight Status: Arrived
Operator: Privately registered:
United States
More flights under this callsign
Pilot: Jamie W. (1654)
Aircraft: MAULE M-7-235/260 STAR ROCKET
(M7)
More flights by this aircraft type
Origin: KSMX Santa Maria Pub/Capt Hancock
United States
Destination: KBFL Meadows
United States
More flights between these airports :: More routes between these airports
Route: +
File this flight plan on PilotEdge
Remarks: CAT5
Altitude:
(Current/Filed)
0ft
Speed:
(Current/Filed)
0kts
Departed: 10-Jun-17 03:15 PM
Arrived: 10-Jun-17 04:00 PM
Distance/Time
Traveled:
76nm/0:45
Distance/Time
To Go:
Arrived

Flight Plot

Page will automatically refresh every two minutes.


Map Options




Map Legend


Flown Route
Filed Route
Departure Airport
Arrival Airport
Navaid (VOR, NDB)
Fix

Horizontal Profiles

Position Reports

Time Latitude Longitude Heading Altitude Ground
Speed
10-Jun-17 15:14 34.895511 -120.444981 231 264ft 0kts
10-Jun-17 15:15 34.893855 -120.445674 188 264ft 11kts
10-Jun-17 15:16 34.893567 -120.445708 181 264ft 0kts
10-Jun-17 15:17 34.899638 -120.453250 311 547ft 60kts
10-Jun-17 15:18 34.915060 -120.471672 303 1055ft 81kts
10-Jun-17 15:19 34.934508 -120.478595 38 1318ft 118kts
10-Jun-17 15:20 34.946956 -120.441588 72 1591ft 124kts
10-Jun-17 15:21 34.954715 -120.409270 62 1867ft 119kts
10-Jun-17 15:22 34.960734 -120.362962 72 2389ft 116kts
10-Jun-17 15:23 34.968521 -120.328174 55 2840ft 99kts
10-Jun-17 15:24 34.986971 -120.306070 24 3261ft 91kts
10-Jun-17 15:25 34.996638 -120.282524 85 3548ft 108kts
10-Jun-17 15:26 34.997325 -120.246660 85 3916ft 103kts
10-Jun-17 15:27 35.001380 -120.205305 64 4269ft 106kts
10-Jun-17 15:28 35.011875 -120.173612 60 4591ft 99kts
10-Jun-17 15:29 35.020509 -120.140928 65 4813ft 101kts
10-Jun-17 15:30 35.027753 -120.107119 60 5033ft 100kts
10-Jun-17 15:31 35.039380 -120.082676 66 5251ft 106kts
10-Jun-17 15:32 35.046576 -120.047942 62 5517ft 112kts
10-Jun-17 15:33 35.061697 -120.012128 52 5661ft 122kts
10-Jun-17 15:34 35.073254 -119.971414 63 5492ft 128kts
10-Jun-17 15:35 35.090440 -119.933506 61 5577ft 131kts
10-Jun-17 15:36 35.104560 -119.891112 66 5474ft 137kts
10-Jun-17 15:37 35.120749 -119.849993 59 5241ft 136kts
10-Jun-17 15:38 35.136348 -119.809630 62 4988ft 134kts
10-Jun-17 15:39 35.152007 -119.769526 60 4842ft 122kts
10-Jun-17 15:40 35.166476 -119.731784 63 4825ft 121kts
10-Jun-17 15:41 35.181496 -119.695806 58 4828ft 119kts
10-Jun-17 15:42 35.198304 -119.660351 58 4769ft 120kts
10-Jun-17 15:43 35.214201 -119.624441 62 4586ft 121kts
10-Jun-17 15:44 35.230498 -119.589149 57 4549ft 117kts
10-Jun-17 15:45 35.244002 -119.551466 64 4239ft 123kts
10-Jun-17 15:46 35.257606 -119.513226 64 3777ft 123kts
10-Jun-17 15:47 35.269184 -119.474378 67 3145ft 121kts
10-Jun-17 15:48 35.279336 -119.434588 71 2248ft 124kts
10-Jun-17 15:49 35.291142 -119.397990 62 1866ft 113kts
10-Jun-17 15:50 35.306517 -119.364891 46 1849ft 111kts
10-Jun-17 15:51 35.324855 -119.334001 52 1884ft 111kts
10-Jun-17 15:52 35.338100 -119.299136 61 1921ft 112kts
10-Jun-17 15:53 35.352349 -119.264901 59 1903ft 112kts
10-Jun-17 15:54 35.366282 -119.230367 65 1932ft 114kts
10-Jun-17 15:55 35.377502 -119.193776 61 1829ft 113kts
10-Jun-17 15:56 35.392504 -119.159121 58 1616ft 113kts
10-Jun-17 15:57 35.405454 -119.123503 58 1459ft 112kts
10-Jun-17 15:58 35.422768 -119.101774 38 1279ft 90kts
10-Jun-17 15:59 35.434693 -119.077715 102 1115ft 91kts
10-Jun-17 16:00 35.418830 -119.056737 148 1284ft 84kts
10-Jun-17 16:01 35.415732 -119.038413 334 733ft 72kts
10-Jun-17 16:02 35.426858 -119.051259 315 510ft 18kts
10-Jun-17 16:03 35.427893 -119.051550 41 510ft 0kts
10-Jun-17 16:04 35.427893 -119.051549 41 510ft 0kts
10-Jun-17 16:05 35.428660 -119.050217 128 510ft 14kts
10-Jun-17 16:06 35.426175 -119.045454 54 510ft 5kts
10-Jun-17 16:07 35.428953 -119.045729 303 510ft 15kts
10-Jun-17 16:08 35.430211 -119.047452 317 510ft 0kts

Navigation Log

Ident Type
1. KSMX Airport
2. KBFL Airport